createdAt,value
2019-05-02T00:00:05.953Z,0.00
2019-05-02T00:01:05.981Z,0.00
2019-05-02T00:02:05.930Z,0.00
2019-05-02T00:03:05.923Z,0.00
2019-05-02T00:04:05.911Z,0.00
2019-05-02T00:05:05.902Z,0.00
2019-05-02T00:06:07.370Z,0.00
2019-05-02T00:07:05.875Z,0.00
2019-05-02T00:08:05.859Z,0.00
2019-05-02T00:09:09.145Z,0.00
2019-05-02T00:10:06.843Z,0.00
2019-05-02T00:11:05.853Z,0.00
2019-05-02T00:12:05.832Z,0.00
2019-05-02T00:13:05.812Z,0.00
2019-05-02T00:14:05.798Z,0.00
2019-05-02T00:15:05.787Z,0.00
2019-05-02T00:16:09.136Z,0.00
2019-05-02T00:17:06.773Z,0.00
2019-05-02T00:18:05.751Z,0.00
2019-05-02T00:19:09.055Z,0.00
2019-05-02T00:20:06.728Z,0.00
2019-05-02T00:21:05.728Z,0.00
2019-05-02T00:22:05.759Z,0.00
2019-05-02T00:23:05.706Z,0.00
2019-05-02T00:24:05.700Z,0.00
2019-05-02T00:25:05.676Z,0.00
2019-05-02T00:26:05.678Z,0.00
2019-05-02T00:27:05.680Z,0.00
2019-05-02T00:28:07.823Z,0.00
2019-05-02T00:29:06.657Z,0.00
2019-05-02T00:30:05.636Z,0.00
2019-05-02T00:31:07.475Z,0.00
2019-05-02T00:32:06.627Z,0.00
2019-05-02T00:33:05.596Z,0.00
2019-05-02T00:34:05.619Z,0.00
2019-05-02T00:35:05.568Z,0.00
2019-05-02T00:36:05.568Z,0.00
2019-05-02T00:37:05.580Z,0.00
2019-05-02T00:38:05.547Z,0.00
2019-05-02T00:39:09.510Z,0.00
2019-05-02T00:40:06.515Z,0.00
2019-05-02T00:41:05.527Z,0.00
2019-05-02T00:42:12.429Z,0.00
2019-05-02T00:43:06.505Z,0.00
2019-05-02T00:44:06.092Z,0.00
2019-05-02T00:45:06.470Z,0.00
2019-05-02T00:46:05.462Z,0.00
2019-05-02T00:47:06.108Z,0.00
2019-05-02T00:48:06.447Z,0.00
2019-05-02T00:49:05.423Z,0.00
2019-05-02T00:50:06.188Z,0.00
2019-05-02T00:51:06.407Z,0.00
2019-05-02T00:52:05.397Z,0.00
2019-05-02T00:53:07.292Z,0.00
2019-05-02T00:54:06.392Z,0.00
2019-05-02T00:55:05.356Z,0.00
2019-05-02T00:56:09.169Z,0.00
2019-05-02T00:57:06.327Z,0.00
2019-05-02T00:58:05.357Z,0.00
2019-05-02T00:59:07.423Z,0.00
2019-05-02T01:00:05.307Z,0.00
2019-05-02T01:01:05.300Z,0.00
2019-05-02T01:02:07.086Z,0.00
2019-05-02T01:03:05.286Z,0.00
2019-05-02T01:04:05.265Z,0.00
2019-05-02T01:05:05.268Z,0.00
2019-05-02T01:06:05.248Z,0.00
2019-05-02T01:07:05.224Z,0.00
2019-05-02T01:08:05.224Z,0.00
2019-05-02T01:09:05.780Z,0.00
2019-05-02T01:10:06.202Z,0.00
2019-05-02T01:11:05.184Z,0.00
2019-05-02T01:12:08.282Z,0.00
2019-05-02T01:13:05.170Z,0.00
2019-05-02T01:14:05.151Z,0.00
2019-05-02T01:15:08.389Z,0.00
2019-05-02T01:16:05.144Z,0.00
2019-05-02T01:17:05.126Z,0.00
2019-05-02T01:18:06.127Z,0.00
2019-05-02T01:19:05.093Z,0.00
2019-05-02T01:20:05.095Z,0.00
2019-05-02T01:21:05.104Z,0.00
2019-05-02T01:22:05.098Z,0.00
2019-05-02T01:23:05.055Z,0.00
2019-05-02T01:24:05.055Z,0.00
2019-05-02T01:25:05.050Z,0.00
2019-05-02T01:26:05.034Z,0.00
2019-05-02T01:27:06.501Z,0.00
2019-05-02T01:28:05.011Z,0.00
2019-05-02T01:29:04.992Z,0.00
2019-05-02T01:30:06.080Z,0.00
2019-05-02T01:31:04.999Z,0.00
2019-05-02T01:32:04.972Z,0.00
2019-05-02T01:33:06.396Z,0.00
2019-05-02T01:34:04.940Z,0.00
2019-05-02T01:35:04.953Z,0.00
2019-05-02T01:36:06.393Z,0.00
2019-05-02T01:37:04.935Z,0.00
2019-05-02T01:38:04.909Z,0.00
2019-05-02T01:39:07.503Z,0.00
2019-05-02T01:40:04.881Z,0.00
2019-05-02T01:41:04.874Z,0.00
2019-05-02T01:42:05.442Z,0.00
2019-05-02T01:43:04.854Z,0.00
2019-05-02T01:44:04.850Z,0.00
2019-05-02T01:45:06.747Z,0.00
2019-05-02T01:46:05.819Z,0.00
2019-05-02T01:47:04.798Z,0.00
2019-05-02T01:48:04.954Z,0.00
2019-05-02T01:49:04.820Z,0.00
2019-05-02T01:50:04.767Z,0.00
2019-05-02T01:51:10.070Z,0.00
2019-05-02T01:52:05.763Z,0.00
2019-05-02T01:53:04.739Z,0.00
2019-05-02T01:54:05.097Z,0.00
2019-05-02T01:55:04.727Z,0.00
2019-05-02T01:56:04.715Z,0.00
2019-05-02T01:57:08.622Z,0.00
2019-05-02T01:58:05.682Z,0.00
2019-05-02T01:59:04.703Z,0.00
2019-05-02T02:00:09.377Z,0.00
2019-05-02T02:01:05.663Z,0.00
2019-05-02T02:02:04.648Z,0.00
2019-05-02T02:03:09.050Z,0.00
2019-05-02T02:04:05.637Z,0.00
2019-05-02T02:05:04.633Z,0.00
2019-05-02T02:06:08.120Z,0.00
2019-05-02T02:07:05.594Z,0.00
2019-05-02T02:08:04.571Z,0.00
2019-05-02T02:09:08.435Z,0.00
2019-05-02T02:10:05.577Z,0.00
2019-05-02T02:11:04.587Z,0.00
2019-05-02T02:12:04.914Z,0.00
2019-05-02T02:13:05.285Z,0.00
2019-05-02T02:14:07.429Z,0.00
2019-05-02T02:15:05.505Z,0.00
2019-05-02T02:16:05.847Z,0.00
2019-05-02T02:17:04.516Z,0.00
2019-05-02T02:18:04.475Z,0.00
2019-05-02T02:19:05.399Z,0.00
2019-05-02T02:20:04.458Z,0.00
2019-05-02T02:21:04.447Z,0.00
2019-05-02T02:22:04.487Z,0.00
2019-05-02T02:23:04.436Z,0.00
2019-05-02T02:24:04.404Z,0.00
2019-05-02T02:25:04.414Z,0.00
2019-05-02T02:26:06.808Z,0.00
2019-05-02T02:27:05.405Z,0.00
2019-05-02T02:28:04.366Z,0.00
2019-05-02T02:29:07.944Z,0.00
2019-05-02T02:30:04.347Z,0.00
2019-05-02T02:31:07.467Z,0.00
2019-05-02T02:32:04.337Z,0.00
2019-05-02T02:33:07.567Z,0.00
2019-05-02T02:34:04.301Z,0.00
2019-05-02T02:35:10.087Z,0.00
2019-05-02T02:36:05.281Z,0.00
2019-05-02T02:37:05.310Z,0.00
2019-05-02T02:38:05.284Z,0.00
2019-05-02T02:39:06.919Z,0.00
2019-05-02T02:40:05.244Z,0.00
2019-05-02T02:41:06.443Z,0.00
2019-05-02T02:42:05.225Z,0.00
2019-05-02T02:43:22.245Z,0.00
2019-05-02T02:44:05.216Z,0.00
2019-05-02T02:45:04.197Z,0.00
2019-05-02T02:46:04.185Z,0.00
2019-05-02T02:47:04.175Z,0.00
2019-05-02T02:48:04.145Z,0.00
2019-05-02T02:49:04.147Z,0.00
2019-05-02T02:50:05.339Z,0.00
2019-05-02T02:51:04.123Z,0.00
2019-05-02T02:52:05.025Z,0.00
2019-05-02T02:53:04.121Z,0.00
2019-05-02T02:54:05.861Z,0.00
2019-05-02T02:55:04.082Z,0.00
2019-05-02T02:56:04.262Z,0.00
2019-05-02T02:57:04.069Z,0.00
2019-05-02T02:58:04.698Z,0.00
2019-05-02T02:59:04.084Z,0.00
2019-05-02T03:00:07.788Z,0.00
2019-05-02T03:01:05.019Z,0.00
2019-05-02T03:02:10.073Z,0.00
2019-05-02T03:03:04.989Z,0.00
2019-05-02T03:04:09.642Z,0.00
2019-05-02T03:05:04.979Z,0.00
2019-05-02T03:06:05.631Z,0.00
2019-05-02T03:07:03.951Z,0.00
2019-05-02T03:08:05.404Z,0.00
2019-05-02T03:09:03.922Z,0.00
2019-05-02T03:10:06.031Z,0.00
2019-05-02T03:11:03.912Z,0.00
2019-05-02T03:12:04.580Z,0.00
2019-05-02T03:13:03.887Z,0.00
2019-05-02T03:14:07.405Z,0.00
2019-05-02T03:15:04.869Z,0.00
2019-05-02T03:16:07.068Z,0.00
2019-05-02T03:17:04.839Z,0.00
2019-05-02T03:18:03.834Z,0.00
2019-05-02T03:19:03.823Z,0.00
2019-05-02T03:20:04.021Z,0.00
2019-05-02T03:21:03.856Z,0.00
2019-05-02T03:22:04.187Z,0.00
2019-05-02T03:23:03.789Z,0.00
2019-05-02T03:24:05.814Z,0.00
2019-05-02T03:25:03.752Z,0.00
2019-05-02T03:26:07.847Z,0.00
2019-05-02T03:27:04.716Z,0.00
2019-05-02T03:28:03.751Z,0.00
2019-05-02T03:29:03.742Z,0.00
2019-05-02T03:30:03.690Z,0.00
2019-05-02T03:31:20.963Z,0.00
2019-05-02T03:32:14.401Z,0.00
2019-05-02T03:33:10.250Z,0.00
2019-05-02T03:34:04.703Z,0.00
2019-05-02T03:35:03.655Z,0.00
2019-05-02T03:36:03.635Z,0.00
2019-05-02T03:37:10.688Z,0.00
2019-05-02T03:38:04.608Z,0.00
2019-05-02T03:39:13.582Z,0.00
2019-05-02T03:40:04.606Z,0.00
2019-05-02T03:41:03.590Z,0.00
2019-05-02T03:42:04.976Z,0.00
2019-05-02T03:43:03.571Z,0.00
2019-05-02T03:44:11.370Z,0.00
2019-05-02T03:45:05.276Z,0.00
2019-05-02T03:46:03.535Z,0.00
2019-05-02T03:47:04.990Z,0.00
2019-05-02T03:48:03.539Z,0.00
2019-05-02T03:49:07.376Z,0.00
2019-05-02T03:50:08.343Z,0.00
2019-05-02T03:51:05.215Z,0.00
2019-05-02T03:52:05.901Z,0.00
2019-05-02T03:53:03.450Z,5.62
2019-05-02T03:54:07.785Z,5.62
2019-05-02T03:55:04.450Z,5.62
2019-05-02T03:56:10.604Z,5.62
2019-05-02T03:57:04.419Z,5.62
2019-05-02T03:58:12.860Z,5.62
2019-05-02T03:59:04.434Z,5.62
2019-05-02T04:00:03.391Z,5.62
2019-05-02T04:01:03.900Z,5.62
2019-05-02T04:02:03.393Z,11.25
2019-05-02T04:03:03.366Z,11.25
2019-05-02T04:04:03.343Z,11.25
2019-05-02T04:05:03.335Z,11.25
2019-05-02T04:06:03.322Z,11.25
2019-05-02T04:07:03.409Z,11.25
2019-05-02T04:08:05.385Z,16.88
2019-05-02T04:09:05.356Z,16.88
2019-05-02T04:10:04.689Z,16.88
2019-05-02T04:11:03.645Z,16.88
2019-05-02T04:12:03.588Z,22.50
2019-05-02T04:13:03.512Z,22.50
2019-05-02T04:14:14.885Z,22.50
2019-05-02T04:15:04.318Z,28.12
2019-05-02T04:16:14.535Z,33.75
2019-05-02T04:17:04.310Z,33.75
2019-05-02T04:18:08.386Z,33.75
2019-05-02T04:19:04.302Z,33.75
2019-05-02T04:20:09.783Z,39.38
2019-05-02T04:21:04.243Z,39.38
2019-05-02T04:22:08.425Z,45.00
2019-05-02T04:23:04.113Z,45.00
2019-05-02T04:24:12.999Z,45.00
2019-05-02T04:25:06.325Z,45.00
2019-05-02T04:26:06.804Z,50.62
2019-05-02T04:27:04.202Z,50.62
2019-05-02T04:28:05.959Z,50.62
2019-05-02T04:29:04.247Z,56.25
2019-05-02T04:30:11.618Z,56.25
2019-05-02T04:31:04.151Z,61.88
2019-05-02T04:32:10.817Z,61.88
2019-05-02T04:33:04.044Z,67.50
2019-05-02T04:34:14.198Z,67.50
2019-05-02T04:35:03.991Z,73.12
2019-05-02T04:36:14.033Z,73.12
2019-05-02T04:37:04.296Z,73.12
2019-05-02T04:38:09.986Z,73.12
2019-05-02T04:39:05.659Z,78.75
2019-05-02T04:40:07.918Z,78.75
2019-05-02T04:41:03.952Z,78.75
2019-05-02T04:42:13.021Z,84.38
2019-05-02T04:43:08.229Z,90.00
2019-05-02T04:44:04.247Z,90.00
2019-05-02T04:45:21.171Z,90.00
2019-05-02T04:46:09.454Z,84.38
2019-05-02T04:47:13.933Z,84.38
2019-05-02T04:48:04.239Z,90.00
2019-05-02T04:49:02.940Z,90.00
2019-05-02T04:50:08.006Z,95.62
2019-05-02T04:51:10.136Z,101.25
2019-05-02T04:52:10.374Z,106.88
2019-05-02T04:53:03.827Z,106.88
2019-05-02T04:54:02.792Z,106.88
2019-05-02T04:55:14.797Z,106.88
2019-05-02T04:56:06.845Z,106.88
2019-05-02T04:57:03.884Z,112.50
2019-05-02T04:58:03.153Z,112.50
2019-05-02T04:59:14.015Z,118.12
2019-05-02T05:00:08.474Z,123.75
2019-05-02T05:01:03.849Z,123.75
2019-05-02T05:02:02.841Z,123.75
2019-05-02T05:03:07.223Z,129.38
2019-05-02T05:04:03.870Z,135.00
2019-05-02T05:05:02.757Z,140.62
2019-05-02T05:06:10.048Z,140.62
2019-05-02T05:07:03.690Z,140.62
2019-05-02T05:08:02.694Z,146.25
2019-05-02T05:09:04.005Z,146.25
2019-05-02T05:10:03.769Z,146.25
2019-05-02T05:11:02.741Z,146.25
2019-05-02T05:12:02.840Z,146.25
2019-05-02T05:13:02.784Z,151.88
2019-05-02T05:14:02.633Z,157.50
2019-05-02T05:15:02.629Z,163.12
2019-05-02T05:16:02.989Z,174.38
2019-05-02T05:17:02.738Z,180.00
2019-05-02T05:18:04.440Z,180.00
2019-05-02T05:19:03.605Z,196.88
2019-05-02T05:20:10.452Z,202.50
2019-05-02T05:21:03.696Z,202.50
2019-05-02T05:22:04.949Z,191.25
2019-05-02T05:23:02.495Z,180.00
2019-05-02T05:24:02.465Z,185.62
2019-05-02T05:25:02.453Z,191.25
2019-05-02T05:26:04.707Z,185.62
2019-05-02T05:27:02.467Z,180.00
2019-05-02T05:28:05.901Z,185.62
2019-05-02T05:29:02.706Z,196.88
2019-05-02T05:30:09.422Z,196.88
2019-05-02T05:31:03.478Z,213.75
2019-05-02T05:32:05.705Z,230.62
2019-05-02T05:33:03.364Z,225.00
2019-05-02T05:34:02.495Z,225.00
2019-05-02T05:35:03.420Z,230.62
2019-05-02T05:36:03.507Z,236.25
2019-05-02T05:37:03.801Z,225.00
2019-05-02T05:38:03.441Z,219.38
2019-05-02T05:39:03.013Z,230.62
2019-05-02T05:40:03.568Z,225.00
2019-05-02T05:41:03.075Z,219.38
2019-05-02T05:42:03.336Z,225.00
2019-05-02T05:43:11.317Z,225.00
2019-05-02T05:44:03.269Z,219.38
2019-05-02T05:45:03.714Z,219.38
2019-05-02T05:46:10.628Z,219.38
2019-05-02T05:47:03.389Z,225.00
2019-05-02T05:48:02.235Z,236.25
2019-05-02T05:49:02.378Z,230.62
2019-05-02T05:50:02.294Z,230.62
2019-05-02T05:51:02.282Z,225.00
2019-05-02T05:52:03.762Z,219.38
2019-05-02T05:53:02.215Z,225.00
2019-05-02T05:54:03.159Z,208.12
2019-05-02T05:55:04.772Z,213.75
2019-05-02T05:56:02.594Z,230.62
2019-05-02T05:57:02.152Z,247.50
2019-05-02T05:58:12.407Z,264.38
2019-05-02T05:59:03.309Z,270.00
2019-05-02T06:00:03.956Z,264.38
2019-05-02T06:01:03.191Z,253.12
2019-05-02T06:02:05.409Z,247.50
2019-05-02T06:03:13.058Z,264.38
2019-05-02T06:04:03.133Z,292.50
2019-05-02T06:05:03.712Z,303.75
2019-05-02T06:06:02.107Z,303.75
2019-05-02T06:07:03.277Z,298.12
2019-05-02T06:08:01.981Z,281.25
2019-05-02T06:09:01.993Z,270.00
2019-05-02T06:10:02.224Z,270.00
2019-05-02T06:11:02.953Z,281.25
2019-05-02T06:12:01.938Z,281.25
2019-05-02T06:13:05.233Z,303.75
2019-05-02T06:14:02.910Z,326.25
2019-05-02T06:15:03.759Z,331.88
2019-05-02T06:16:03.220Z,337.50
2019-05-02T06:17:01.923Z,337.50
2019-05-02T06:18:04.814Z,343.12
2019-05-02T06:19:01.858Z,337.50
2019-05-02T06:20:01.847Z,348.75
2019-05-02T06:21:03.453Z,365.62
2019-05-02T06:22:02.883Z,371.25
2019-05-02T06:23:01.861Z,393.75
2019-05-02T06:24:01.809Z,393.75
2019-05-02T06:25:01.812Z,388.12
2019-05-02T06:26:07.910Z,410.62
2019-05-02T06:27:02.787Z,427.50
2019-05-02T06:28:05.184Z,427.50
2019-05-02T06:29:01.787Z,427.50
2019-05-02T06:30:01.750Z,444.38
2019-05-02T06:31:02.120Z,466.88
2019-05-02T06:32:02.710Z,466.88
2019-05-02T06:33:01.737Z,466.88
2019-05-02T06:34:02.088Z,489.38
2019-05-02T06:35:01.712Z,478.12
2019-05-02T06:36:02.507Z,489.38
2019-05-02T06:37:01.669Z,483.75
2019-05-02T06:38:01.668Z,433.12
2019-05-02T06:39:01.648Z,438.75
2019-05-02T06:40:03.054Z,472.50
2019-05-02T06:41:02.675Z,534.38
2019-05-02T06:42:01.629Z,534.38
2019-05-02T06:43:04.227Z,517.50
2019-05-02T06:44:02.599Z,495.00
2019-05-02T06:45:01.587Z,478.12
2019-05-02T06:46:14.902Z,455.62
2019-05-02T06:47:04.277Z,438.75
2019-05-02T06:48:01.556Z,444.38
2019-05-02T06:49:01.538Z,478.12
2019-05-02T06:50:02.773Z,517.50
2019-05-02T06:51:01.537Z,500.62
2019-05-02T06:52:01.534Z,489.38
2019-05-02T06:53:04.363Z,472.50
2019-05-02T06:54:02.472Z,489.38
2019-05-02T06:55:01.468Z,461.25
2019-05-02T06:56:01.469Z,438.75
2019-05-02T06:57:01.517Z,478.12
2019-05-02T06:58:02.890Z,523.12
2019-05-02T06:59:01.463Z,528.75
2019-05-02T07:00:01.418Z,523.12
2019-05-02T07:01:01.409Z,500.62
2019-05-02T07:02:01.401Z,500.62
2019-05-02T07:03:05.129Z,523.12
2019-05-02T07:04:04.261Z,478.12
2019-05-02T07:05:01.361Z,444.38
2019-05-02T07:06:02.742Z,433.12
2019-05-02T07:07:01.497Z,427.50
2019-05-02T07:08:01.356Z,444.38
2019-05-02T07:09:01.607Z,444.38
2019-05-02T07:10:01.302Z,455.62
2019-05-02T07:11:03.136Z,506.25
2019-05-02T07:12:01.676Z,528.75
2019-05-02T07:13:09.946Z,506.25
2019-05-02T07:14:12.973Z,489.38
2019-05-02T07:15:03.861Z,438.75
2019-05-02T07:16:01.236Z,433.12
2019-05-02T07:17:01.235Z,461.25
2019-05-02T07:18:05.440Z,495.00
2019-05-02T07:19:02.203Z,489.38
2019-05-02T07:20:04.102Z,455.62
2019-05-02T07:21:01.196Z,444.38
2019-05-02T07:22:04.192Z,438.75
2019-05-02T07:23:01.217Z,416.25
2019-05-02T07:24:01.195Z,393.75
2019-05-02T07:25:01.931Z,393.75
2019-05-02T07:26:02.134Z,399.38
2019-05-02T07:27:02.542Z,393.75
2019-05-02T07:28:04.655Z,393.75
2019-05-02T07:29:02.123Z,399.38
2019-05-02T07:30:01.123Z,399.38
2019-05-02T07:31:01.110Z,382.50
2019-05-02T07:32:01.111Z,371.25
2019-05-02T07:33:02.309Z,382.50
2019-05-02T07:34:01.094Z,388.12
2019-05-02T07:35:01.038Z,421.88
2019-05-02T07:36:01.461Z,483.75
2019-05-02T07:37:01.008Z,495.00
2019-05-02T07:38:01.017Z,500.62
2019-05-02T07:39:05.232Z,506.25
2019-05-02T07:40:01.991Z,506.25
2019-05-02T07:41:01.016Z,511.88
2019-05-02T07:42:05.971Z,545.62
2019-05-02T07:43:01.942Z,590.62
2019-05-02T07:44:00.953Z,596.25
2019-05-02T07:45:04.417Z,579.38
2019-05-02T07:46:01.922Z,596.25
2019-05-02T07:47:02.448Z,641.25
2019-05-02T07:48:01.540Z,607.50
2019-05-02T07:49:00.916Z,562.50
2019-05-02T07:50:05.397Z,500.62
2019-05-02T07:51:01.860Z,478.12
2019-05-02T07:52:00.866Z,455.62
2019-05-02T07:53:04.427Z,483.75
2019-05-02T07:54:01.875Z,483.75
2019-05-02T07:55:01.165Z,461.25
2019-05-02T07:56:00.793Z,472.50
2019-05-02T07:57:02.382Z,495.00
2019-05-02T07:58:02.014Z,523.12
2019-05-02T07:59:01.797Z,590.62
2019-05-02T08:00:02.603Z,590.62
2019-05-02T08:01:00.773Z,652.50
2019-05-02T08:02:00.745Z,697.50
2019-05-02T08:03:00.735Z,703.12
2019-05-02T08:04:04.459Z,781.88
2019-05-02T08:05:00.732Z,849.38
2019-05-02T08:06:00.720Z,787.50
2019-05-02T08:07:00.703Z,781.88
2019-05-02T08:08:00.682Z,843.75
2019-05-02T08:09:01.625Z,793.12
2019-05-02T08:10:01.683Z,832.50
2019-05-02T08:11:02.884Z,832.50
2019-05-02T08:12:00.613Z,765.00
2019-05-02T08:13:00.643Z,759.38
2019-05-02T08:14:00.686Z,781.88
2019-05-02T08:15:00.614Z,765.00
2019-05-02T08:16:00.602Z,776.25
2019-05-02T08:17:05.846Z,725.62
2019-05-02T08:18:01.652Z,680.62
2019-05-02T08:19:04.966Z,725.62
2019-05-02T08:20:00.560Z,776.25
2019-05-02T08:21:00.532Z,793.12
2019-05-02T08:22:04.713Z,776.25
2019-05-02T08:23:01.511Z,781.88
2019-05-02T08:24:02.179Z,759.38
2019-05-02T08:25:00.497Z,748.12
2019-05-02T08:26:00.500Z,781.88
2019-05-02T08:27:00.470Z,849.38
2019-05-02T08:28:00.482Z,855.00
2019-05-02T08:29:00.435Z,855.00
2019-05-02T08:30:04.309Z,855.00
2019-05-02T08:31:01.440Z,911.25
2019-05-02T08:32:00.404Z,990.00
2019-05-02T08:33:00.404Z,1074.38
2019-05-02T08:34:00.428Z,1096.88
2019-05-02T08:35:00.381Z,984.38
2019-05-02T08:36:00.363Z,1029.38
2019-05-02T08:37:03.388Z,973.12
2019-05-02T08:38:00.352Z,995.62
2019-05-02T08:39:00.331Z,871.88
2019-05-02T08:40:00.329Z,911.25
2019-05-02T08:41:00.317Z,961.88
2019-05-02T08:42:00.305Z,911.25
2019-05-02T08:43:03.695Z,916.88
2019-05-02T08:44:01.262Z,984.38
2019-05-02T08:45:00.988Z,1035.00
2019-05-02T08:46:00.296Z,1046.25
2019-05-02T08:47:00.249Z,1051.88
2019-05-02T08:48:04.844Z,1029.38
2019-05-02T08:49:01.240Z,1001.25
2019-05-02T08:50:00.221Z,1051.88
2019-05-02T08:51:00.202Z,1040.62
2019-05-02T08:52:00.213Z,956.25
2019-05-02T08:53:00.220Z,900.00
2019-05-02T08:54:00.193Z,843.75
2019-05-02T08:55:04.357Z,900.00
2019-05-02T08:56:01.142Z,939.38
2019-05-02T08:57:00.647Z,1080.00
2019-05-02T08:58:00.141Z,1096.88
2019-05-02T08:59:00.113Z,1074.38
2019-05-02T09:00:01.370Z,1141.88
2019-05-02T09:01:00.103Z,1029.38
2019-05-02T09:02:00.082Z,1080.00
2019-05-02T09:03:02.590Z,1316.25
2019-05-02T09:04:00.062Z,1209.38
2019-05-02T09:05:04.667Z,1091.25
2019-05-02T09:06:05.890Z,1085.62
2019-05-02T09:07:01.057Z,1119.38
2019-05-02T09:08:00.051Z,1276.88
2019-05-02T09:09:00.023Z,1125.00
2019-05-02T09:10:00.163Z,1164.38
2019-05-02T09:11:01.070Z,1293.75
2019-05-02T09:12:11.395Z,1451.25
2019-05-02T09:13:02.675Z,1350.00
2019-05-02T09:14:01.945Z,1040.62
2019-05-02T09:14:59.922Z,1018.12
2019-05-02T09:16:02.781Z,1260.00
2019-05-02T09:17:08.618Z,1366.88
2019-05-02T09:18:02.685Z,1333.12
2019-05-02T09:18:59.889Z,1783.12
2019-05-02T09:20:04.969Z,1513.12
2019-05-02T09:21:02.071Z,1473.75
2019-05-02T09:21:59.914Z,1625.62
2019-05-02T09:23:01.617Z,1327.50
2019-05-02T09:23:59.832Z,1406.25
2019-05-02T09:25:02.107Z,1428.75
2019-05-02T09:25:59.814Z,1423.12
2019-05-02T09:26:59.823Z,1670.62
2019-05-02T09:28:01.735Z,1648.12
2019-05-02T09:29:01.710Z,1479.38
2019-05-02T09:30:02.739Z,1198.12
2019-05-02T09:31:05.025Z,1203.75
2019-05-02T09:32:02.132Z,1344.38
2019-05-02T09:33:02.843Z,1591.88
2019-05-02T09:34:02.548Z,1496.25
2019-05-02T09:35:02.351Z,1434.38
2019-05-02T09:36:02.378Z,1873.12
2019-05-02T09:36:59.750Z,1333.12
2019-05-02T09:38:01.638Z,1136.25
2019-05-02T09:38:59.710Z,1963.12
2019-05-02T09:40:02.047Z,1980.00
2019-05-02T09:41:13.822Z,1755.00
2019-05-02T09:42:02.174Z,1012.50
2019-05-02T09:43:02.201Z,1096.88
2019-05-02T09:43:59.636Z,1170.00
2019-05-02T09:44:59.618Z,2064.38
2019-05-02T09:45:59.605Z,2165.62
2019-05-02T09:46:59.574Z,1411.88
2019-05-02T09:48:05.182Z,1423.12
2019-05-02T09:49:02.881Z,2047.50
2019-05-02T09:49:59.605Z,1541.25
2019-05-02T09:51:04.527Z,1530.00
2019-05-02T09:52:01.280Z,1676.25
2019-05-02T09:53:01.700Z,1996.88
2019-05-02T09:54:04.698Z,1288.12
2019-05-02T09:55:02.751Z,1271.25
2019-05-02T09:55:59.492Z,1305.00
2019-05-02T09:56:59.474Z,1338.75
2019-05-02T09:57:59.499Z,2323.12
2019-05-02T09:59:04.825Z,1254.38
2019-05-02T10:00:02.156Z,1406.25
2019-05-02T10:00:59.440Z,1141.88
2019-05-02T10:01:59.432Z,1231.88
2019-05-02T10:02:59.415Z,1507.50
2019-05-02T10:03:59.487Z,1715.62
2019-05-02T10:04:59.432Z,1468.12
2019-05-02T10:05:59.393Z,1400.62
2019-05-02T10:06:59.453Z,1299.38
2019-05-02T10:08:03.120Z,1361.25
2019-05-02T10:09:02.631Z,1378.12
2019-05-02T10:10:03.115Z,1456.88
2019-05-02T10:11:02.619Z,1569.38
2019-05-02T10:11:59.348Z,1558.12
2019-05-02T10:12:59.311Z,1423.12
2019-05-02T10:13:59.303Z,1310.62
2019-05-02T10:14:59.327Z,1378.12
2019-05-02T10:15:59.274Z,1186.88
2019-05-02T10:17:05.133Z,1029.38
2019-05-02T10:18:08.686Z,1040.62
2019-05-02T10:19:00.498Z,1158.75
2019-05-02T10:20:02.029Z,1119.38
2019-05-02T10:20:59.232Z,1136.25
2019-05-02T10:21:59.203Z,1243.12
2019-05-02T10:22:59.191Z,1096.88
2019-05-02T10:24:00.864Z,950.62
2019-05-02T10:24:59.186Z,838.12
2019-05-02T10:25:59.183Z,815.62
2019-05-02T10:27:04.297Z,883.12
2019-05-02T10:28:02.142Z,1012.50
2019-05-02T10:28:59.135Z,1260.00
2019-05-02T10:30:08.207Z,1400.62
2019-05-02T10:31:02.086Z,1265.62
2019-05-02T10:31:59.111Z,1276.88
2019-05-02T10:32:59.119Z,1074.38
2019-05-02T10:33:59.061Z,995.62
2019-05-02T10:34:59.076Z,995.62
2019-05-02T10:35:59.105Z,1091.25
2019-05-02T10:37:00.401Z,1226.25
2019-05-02T10:37:59.055Z,1305.00
2019-05-02T10:38:59.399Z,1468.12
2019-05-02T10:39:59.012Z,1417.50
2019-05-02T10:41:01.823Z,1282.50
2019-05-02T10:42:01.993Z,1243.12
2019-05-02T10:42:58.975Z,1350.00
2019-05-02T10:43:59.621Z,1530.00
2019-05-02T10:44:58.988Z,1490.62
2019-05-02T10:45:58.934Z,1355.62
2019-05-02T10:46:58.994Z,1395.00
2019-05-02T10:47:58.926Z,1445.62
2019-05-02T10:48:58.914Z,1760.62
2019-05-02T10:49:58.904Z,2137.50
2019-05-02T10:50:58.876Z,2278.12
2019-05-02T10:51:58.899Z,2503.12
2019-05-02T10:53:03.492Z,3161.25
2019-05-02T10:53:59.855Z,3245.62
2019-05-02T10:54:58.855Z,2711.25
2019-05-02T10:55:58.841Z,3048.75
2019-05-02T10:56:58.843Z,3127.50
2019-05-02T10:57:58.842Z,3043.12
2019-05-02T10:58:58.807Z,1963.12
2019-05-02T10:59:58.808Z,2418.75
2019-05-02T11:00:58.786Z,2345.62
2019-05-02T11:01:58.773Z,2340.00
2019-05-02T11:02:58.775Z,1282.50
2019-05-02T11:03:58.733Z,1350.00
2019-05-02T11:04:58.741Z,1248.75
2019-05-02T11:06:05.640Z,1327.50
2019-05-02T11:06:59.717Z,2379.38
2019-05-02T11:08:04.715Z,2098.12
2019-05-02T11:08:59.697Z,2250.00
2019-05-02T11:10:03.145Z,2053.12
2019-05-02T11:10:59.657Z,1794.38
2019-05-02T11:11:58.658Z,1541.25
2019-05-02T11:12:58.665Z,1833.75
2019-05-02T11:14:01.045Z,1209.38
2019-05-02T11:14:59.634Z,1046.25
2019-05-02T11:15:58.604Z,1006.88
2019-05-02T11:16:58.609Z,1147.50
2019-05-02T11:17:58.616Z,1552.50
2019-05-02T11:18:58.599Z,1642.50
2019-05-02T11:19:58.570Z,1811.25
2019-05-02T11:20:58.962Z,2896.88
2019-05-02T11:21:59.246Z,2379.38
2019-05-02T11:22:58.563Z,2851.88
2019-05-02T11:23:58.664Z,2655.00
2019-05-02T11:24:58.565Z,2688.75
2019-05-02T11:25:58.507Z,2857.50
2019-05-02T11:26:58.497Z,2947.50
2019-05-02T11:28:05.451Z,2970.00
2019-05-02T11:28:59.497Z,3195.00
2019-05-02T11:29:58.468Z,3313.12
2019-05-02T11:31:02.602Z,3279.38
2019-05-02T11:31:59.443Z,3285.00
2019-05-02T11:32:58.447Z,3436.88
2019-05-02T11:33:58.456Z,3234.38
2019-05-02T11:34:58.452Z,3639.38
2019-05-02T11:35:58.428Z,3735.00
2019-05-02T11:36:58.398Z,3661.88
2019-05-02T11:37:58.378Z,3195.00
2019-05-02T11:39:05.402Z,3088.12
2019-05-02T11:40:01.357Z,3178.12
2019-05-02T11:40:58.364Z,1676.25
2019-05-02T11:41:58.386Z,2936.25
2019-05-02T11:43:02.868Z,3054.38
2019-05-02T11:43:59.330Z,2745.00
2019-05-02T11:44:58.307Z,1366.88
2019-05-02T11:46:05.588Z,3043.12
2019-05-02T11:46:59.279Z,3448.12
2019-05-02T11:48:02.037Z,2700.00
2019-05-02T11:48:59.274Z,2840.62
2019-05-02T11:49:58.239Z,1715.62
2019-05-02T11:50:58.248Z,3532.50
2019-05-02T11:51:58.232Z,3785.62
2019-05-02T11:52:58.256Z,3476.25
2019-05-02T11:53:59.304Z,3088.12
2019-05-02T11:54:59.199Z,3037.50
2019-05-02T11:56:02.394Z,3290.62
2019-05-02T11:56:59.190Z,1850.62
2019-05-02T11:58:02.414Z,3712.50
2019-05-02T11:58:59.169Z,3397.50
2019-05-02T11:59:59.476Z,2475.00
2019-05-02T12:01:02.859Z,1327.50
2019-05-02T12:02:00.097Z,1327.50
2019-05-02T12:02:58.470Z,1462.50
2019-05-02T12:03:58.125Z,2525.62
2019-05-02T12:04:58.101Z,1766.25
2019-05-02T12:05:58.094Z,3346.88
2019-05-02T12:07:01.328Z,3543.75
2019-05-02T12:08:02.595Z,3605.62
2019-05-02T12:08:59.052Z,3532.50
2019-05-02T12:09:58.063Z,3560.62
2019-05-02T12:11:00.966Z,3133.12
2019-05-02T12:11:58.053Z,2002.50
2019-05-02T12:12:58.003Z,1417.50
2019-05-02T12:13:58.052Z,2340.00
2019-05-02T12:14:58.004Z,1681.88
2019-05-02T12:15:57.997Z,3054.38
2019-05-02T12:16:57.975Z,3549.38
2019-05-02T12:17:57.996Z,3583.12
2019-05-02T12:19:08.577Z,1755.00
2019-05-02T12:19:58.928Z,1310.62
2019-05-02T12:20:57.936Z,1215.00
2019-05-02T12:21:57.905Z,1080.00
2019-05-02T12:22:57.958Z,1108.12
2019-05-02T12:23:57.914Z,1226.25
2019-05-02T12:24:57.872Z,3116.25
2019-05-02T12:25:57.875Z,3442.50
2019-05-02T12:26:57.859Z,3768.75
2019-05-02T12:27:57.874Z,4230.00
2019-05-02T12:28:57.868Z,3566.25
2019-05-02T12:29:59.290Z,2790.00
2019-05-02T12:30:57.814Z,3071.25
2019-05-02T12:31:57.806Z,1496.25
2019-05-02T12:32:57.816Z,1192.50
2019-05-02T12:33:57.783Z,1276.88
2019-05-02T12:34:57.772Z,3425.62
2019-05-02T12:35:57.768Z,3330.00
2019-05-02T12:36:57.746Z,2919.38
2019-05-02T12:37:57.776Z,3358.12